createdAt,value
2023-03-02T00:02:07.793Z,25.76
2023-03-02T00:05:11.866Z,25.59
2023-03-02T00:08:17.013Z,25.68
2023-03-02T00:11:20.556Z,25.67
2023-03-02T00:14:23.946Z,25.54
2023-03-02T00:17:27.113Z,25.57
2023-03-02T00:20:30.351Z,25.55
2023-03-02T00:23:33.501Z,25.65
2023-03-02T00:26:37.437Z,25.52
2023-03-02T00:29:40.750Z,25.44
2023-03-02T00:32:44.163Z,25.24
2023-03-02T00:35:48.236Z,25.25
2023-03-02T00:38:52.572Z,25.21
2023-03-02T00:41:55.816Z,25.15
2023-03-02T00:45:01.055Z,25.18
2023-03-02T00:48:06.497Z,25.15
2023-03-02T00:51:10.278Z,25.11
2023-03-02T00:54:13.655Z,25.03
2023-03-02T00:57:17.003Z,25.11
2023-03-02T01:00:22.593Z,24.97
2023-03-02T01:03:26.094Z,24.83
2023-03-02T01:06:29.668Z,24.83
2023-03-02T01:09:33.223Z,24.73
2023-03-02T01:12:36.573Z,24.73
2023-03-02T01:15:40.014Z,24.72
2023-03-02T01:18:43.814Z,24.78
2023-03-02T01:21:47.115Z,24.75
2023-03-02T01:24:50.898Z,24.65
2023-03-02T01:27:54.341Z,24.62
2023-03-02T01:30:57.691Z,24.52
2023-03-02T01:34:01.003Z,24.53
2023-03-02T01:37:07.018Z,24.47
2023-03-02T01:40:13.989Z,24.45
2023-03-02T01:43:17.593Z,24.27
2023-03-02T01:46:30.357Z,24.20
2023-03-02T01:49:38.613Z,24.23
2023-03-02T01:52:41.938Z,24.23
2023-03-02T01:55:46.794Z,24.21
2023-03-02T01:58:53.816Z,24.16
2023-03-02T02:01:59.916Z,24.20
2023-03-02T02:05:04.186Z,24.16
2023-03-02T02:08:08.068Z,23.99
2023-03-02T02:11:11.741Z,24.06
2023-03-02T02:14:15.321Z,24.03
2023-03-02T02:17:19.456Z,23.89
2023-03-02T02:20:36.867Z,23.98
2023-03-02T02:24:12.544Z,23.96
2023-03-02T02:27:16.203Z,23.86
2023-03-02T02:30:19.853Z,24.05
2023-03-02T02:33:24.758Z,23.89
2023-03-02T02:36:31.719Z,24.01
2023-03-02T02:39:37.457Z,24.11
2023-03-02T02:42:44.728Z,24.02
2023-03-02T02:45:50.332Z,24.05
2023-03-02T02:48:54.245Z,23.75
2023-03-02T02:51:57.899Z,23.66
2023-03-02T02:55:01.332Z,23.86
2023-03-02T02:58:10.218Z,23.78
2023-03-02T03:01:16.414Z,23.77
2023-03-02T03:04:26.837Z,23.80
2023-03-02T03:07:31.702Z,23.79
2023-03-02T03:10:38.223Z,23.85
2023-03-02T03:13:42.892Z,23.62
2023-03-02T03:16:47.814Z,23.69
2023-03-02T03:19:51.115Z,23.79
2023-03-02T03:22:54.569Z,23.58
2023-03-02T03:25:57.848Z,23.63
2023-03-02T03:29:01.432Z,23.68
2023-03-02T03:32:05.909Z,23.69
2023-03-02T03:35:09.826Z,23.58
2023-03-02T03:38:13.316Z,23.50
2023-03-02T03:41:16.727Z,23.59
2023-03-02T03:44:20.116Z,23.61
2023-03-02T03:47:26.484Z,23.49
2023-03-02T03:50:29.783Z,23.43
2023-03-02T03:53:34.115Z,23.43
2023-03-02T03:56:40.498Z,23.64
2023-03-02T03:59:43.753Z,23.51
2023-03-02T04:02:47.305Z,23.48
2023-03-02T04:05:50.976Z,23.54
2023-03-02T04:08:54.382Z,23.32
2023-03-02T04:12:00.013Z,23.60
2023-03-02T04:15:03.747Z,23.36
2023-03-02T04:18:07.127Z,23.29
2023-03-02T04:21:10.596Z,23.32
2023-03-02T04:24:17.139Z,23.39
2023-03-02T04:27:20.523Z,23.45
2023-03-02T04:30:26.170Z,23.37
2023-03-02T04:33:29.554Z,23.30
2023-03-02T04:36:35.259Z,23.36
2023-03-02T04:39:40.987Z,23.42
2023-03-02T04:42:44.894Z,23.44
2023-03-02T04:45:48.196Z,23.29
2023-03-02T04:48:52.235Z,23.42
2023-03-02T04:51:55.550Z,23.29
2023-03-02T04:54:58.705Z,23.50
2023-03-02T04:58:01.931Z,23.33
2023-03-02T05:01:06.485Z,23.26
2023-03-02T05:04:09.894Z,23.08
2023-03-02T05:07:13.140Z,23.28
2023-03-02T05:10:17.708Z,23.28
2023-03-02T05:13:21.265Z,23.27
2023-03-02T05:16:32.741Z,23.33
2023-03-02T05:19:36.248Z,23.22
2023-03-02T05:22:39.510Z,23.29
2023-03-02T05:25:42.728Z,23.22
2023-03-02T05:28:46.118Z,23.34
2023-03-02T05:31:50.078Z,23.37
2023-03-02T05:34:53.613Z,23.34
2023-03-02T05:37:56.911Z,23.37
2023-03-02T05:41:00.185Z,23.30
2023-03-02T05:44:04.100Z,23.42
2023-03-02T05:47:10.317Z,23.33
2023-03-02T05:50:13.840Z,23.39
2023-03-02T05:53:17.063Z,23.32
2023-03-02T05:56:20.293Z,23.31
2023-03-02T05:59:23.693Z,23.40
2023-03-02T06:02:26.949Z,23.19
2023-03-02T06:05:30.200Z,23.23
2023-03-02T06:08:35.789Z,23.19
2023-03-02T06:11:39.048Z,23.23
2023-03-02T06:14:42.305Z,23.30
2023-03-02T06:17:45.920Z,23.13
2023-03-02T06:20:50.611Z,23.25
2023-03-02T06:23:53.863Z,23.11
2023-03-02T06:26:57.307Z,23.44
2023-03-02T06:30:00.626Z,23.25
2023-03-02T06:33:03.917Z,23.21
2023-03-02T06:36:07.616Z,23.22
2023-03-02T06:39:11.108Z,23.36
2023-03-02T06:42:14.433Z,23.33
2023-03-02T06:45:19.942Z,23.17
2023-03-02T06:48:23.225Z,23.16
2023-03-02T06:51:26.557Z,23.29
2023-03-02T06:54:30.043Z,23.07
2023-03-02T06:57:33.211Z,23.11
2023-03-02T07:00:36.479Z,23.01
2023-03-02T07:03:40.632Z,22.97
2023-03-02T07:06:43.968Z,22.90
2023-03-02T07:09:47.410Z,23.10
2023-03-02T07:12:50.843Z,23.37
2023-03-02T07:15:54.192Z,23.41
2023-03-02T07:18:57.492Z,23.28
2023-03-02T07:22:00.698Z,23.16
2023-03-02T07:25:04.071Z,23.16
2023-03-02T07:28:07.346Z,23.03
2023-03-02T07:31:11.170Z,22.97
2023-03-02T07:34:15.500Z,23.22
2023-03-02T07:37:18.807Z,23.31
2023-03-02T07:40:24.470Z,23.31
2023-03-02T07:43:27.792Z,23.21
2023-03-02T07:46:31.122Z,23.28
2023-03-02T07:49:34.650Z,23.17
2023-03-02T07:52:37.884Z,23.23
2023-03-02T07:55:42.180Z,23.15
2023-03-02T07:58:45.452Z,23.18
2023-03-02T08:01:48.735Z,23.16
2023-03-02T08:04:52.358Z,23.10
2023-03-02T08:07:55.652Z,22.91
2023-03-02T08:11:08.725Z,22.93
2023-03-02T08:14:12.010Z,22.84
2023-03-02T08:17:15.280Z,22.67
2023-03-02T08:20:18.688Z,22.88
2023-03-02T08:23:22.406Z,22.88
2023-03-02T08:26:25.743Z,23.00
2023-03-02T08:29:29.451Z,22.66
2023-03-02T08:32:34.184Z,22.69
2023-03-02T08:35:37.617Z,22.86
2023-03-02T08:38:40.979Z,22.71
2023-03-02T08:41:44.354Z,22.82
2023-03-02T08:44:48.296Z,22.59
2023-03-02T08:47:54.164Z,22.71
2023-03-02T08:51:28.920Z,22.55
2023-03-02T08:54:33.161Z,22.51
2023-03-02T08:57:36.437Z,22.62
2023-03-02T09:00:39.608Z,22.66
2023-03-02T09:03:42.828Z,22.96
2023-03-02T09:06:47.937Z,22.83
2023-03-02T09:09:51.272Z,22.81
2023-03-02T09:12:58.512Z,22.77
2023-03-02T09:16:02.567Z,22.52
2023-03-02T09:19:06.009Z,22.63
2023-03-02T09:22:09.584Z,22.72
2023-03-02T09:25:12.851Z,22.73
2023-03-02T09:28:16.835Z,22.87
2023-03-02T09:31:20.227Z,22.76
2023-03-02T09:34:23.623Z,22.61
2023-03-02T09:37:29.538Z,22.52
2023-03-02T09:40:35.114Z,22.78
2023-03-02T09:44:08.222Z,22.78
2023-03-02T09:47:44.650Z,22.83
2023-03-02T09:51:00.721Z,22.64
2023-03-02T09:54:13.528Z,22.63
2023-03-02T09:57:26.528Z,22.84
2023-03-02T10:00:43.274Z,22.59
2023-03-02T10:03:53.692Z,22.63
2023-03-02T10:07:11.643Z,22.98
2023-03-02T10:10:37.289Z,22.91
2023-03-02T10:13:51.371Z,22.74
2023-03-02T10:17:08.565Z,22.70
2023-03-02T10:20:20.046Z,22.62
2023-03-02T10:23:52.285Z,22.73
2023-03-02T10:27:00.484Z,22.72
2023-03-02T10:30:15.949Z,22.62
2023-03-02T10:33:20.950Z,22.83
2023-03-02T10:36:41.813Z,22.85
2023-03-02T10:39:45.053Z,22.70
2023-03-02T10:42:48.307Z,22.86
2023-03-02T10:46:06.736Z,22.85
2023-03-02T10:49:32.205Z,22.81
2023-03-02T10:52:35.674Z,22.70
2023-03-02T10:55:49.048Z,22.70
2023-03-02T10:58:52.348Z,22.84
2023-03-02T11:02:03.340Z,22.85
2023-03-02T11:05:18.817Z,22.77
2023-03-02T11:08:24.510Z,22.78
2023-03-02T11:11:28.372Z,22.71
2023-03-02T11:14:31.661Z,22.77
2023-03-02T11:17:37.929Z,22.63
2023-03-02T11:20:44.573Z,22.87
2023-03-02T11:24:13.667Z,22.93
2023-03-02T11:27:28.942Z,22.67
2023-03-02T11:30:35.429Z,22.72
2023-03-02T11:33:45.273Z,22.84
2023-03-02T11:37:09.717Z,22.62
2023-03-02T11:40:41.779Z,22.75
2023-03-02T11:43:45.940Z,22.89
2023-03-02T11:46:57.987Z,22.81
2023-03-02T11:50:05.019Z,22.79
2023-03-02T11:53:14.975Z,22.71
2023-03-02T11:56:18.630Z,22.65
2023-03-02T11:59:22.722Z,22.69
2023-03-02T12:02:26.747Z,22.61
2023-03-02T12:05:32.110Z,22.66
2023-03-02T12:08:41.439Z,22.57
2023-03-02T12:11:46.772Z,22.56
2023-03-02T12:14:50.088Z,22.57
2023-03-02T12:17:53.411Z,22.43
2023-03-02T12:21:11.742Z,22.42
2023-03-02T12:24:29.677Z,22.49
2023-03-02T12:27:39.253Z,22.36
2023-03-02T12:30:42.536Z,22.51
2023-03-02T12:33:51.569Z,22.41
2023-03-02T12:37:02.022Z,22.42
2023-03-02T12:40:40.718Z,22.45
2023-03-02T12:44:16.432Z,22.64
2023-03-02T12:47:21.747Z,22.35
2023-03-02T12:50:27.083Z,22.22
2023-03-02T12:53:30.807Z,22.28
2023-03-02T12:56:34.447Z,22.24
2023-03-02T12:59:38.080Z,22.45
2023-03-02T13:02:47.431Z,22.43
2023-03-02T13:05:50.711Z,22.29
2023-03-02T13:08:57.134Z,22.35
2023-03-02T13:12:02.824Z,22.28
2023-03-02T13:15:15.881Z,22.18
2023-03-02T13:18:19.691Z,22.14
2023-03-02T13:21:35.290Z,22.11
2023-03-02T13:24:56.195Z,22.09
2023-03-02T13:28:01.944Z,22.16
2023-03-02T13:31:21.022Z,22.33
2023-03-02T13:34:29.151Z,22.22
2023-03-02T13:37:39.332Z,22.23
2023-03-02T13:40:47.452Z,22.22
2023-03-02T13:43:50.853Z,22.29
2023-03-02T13:46:54.604Z,22.36
2023-03-02T13:50:07.635Z,22.18
2023-03-02T13:53:12.230Z,21.99
2023-03-02T13:56:17.969Z,21.98
2023-03-02T13:59:22.693Z,21.96
2023-03-02T14:02:33.529Z,22.01
2023-03-02T14:05:37.875Z,22.00
2023-03-02T14:08:41.448Z,22.17
2023-03-02T14:11:47.232Z,22.18
2023-03-02T14:14:50.814Z,22.25
2023-03-02T14:17:54.178Z,21.99
2023-03-02T14:20:57.869Z,21.93
2023-03-02T14:24:01.395Z,22.10
2023-03-02T14:27:04.733Z,21.97
2023-03-02T14:30:21.648Z,21.93
2023-03-02T14:33:26.588Z,21.73
2023-03-02T14:36:34.533Z,21.23
2023-03-02T14:39:39.753Z,21.57
2023-03-02T14:42:43.006Z,21.56
2023-03-02T14:45:46.577Z,21.69
2023-03-02T14:48:49.900Z,21.69
2023-03-02T14:52:24.766Z,21.79
2023-03-02T14:55:30.159Z,21.89
2023-03-02T14:58:34.924Z,22.08
2023-03-02T15:01:38.190Z,21.98
2023-03-02T15:04:41.534Z,21.90
2023-03-02T15:07:45.280Z,21.94
2023-03-02T15:10:52.272Z,21.79
2023-03-02T15:13:55.756Z,21.82
2023-03-02T15:16:59.013Z,21.99
2023-03-02T15:20:05.121Z,22.17
2023-03-02T15:23:08.419Z,22.09
2023-03-02T15:26:12.425Z,22.03
2023-03-02T15:29:15.797Z,22.08
2023-03-02T15:32:19.176Z,22.09
2023-03-02T15:35:25.054Z,22.23
2023-03-02T15:38:28.493Z,22.12
2023-03-02T15:41:32.286Z,22.13
2023-03-02T15:44:35.694Z,22.19
2023-03-02T15:47:38.985Z,22.27
2023-03-02T15:50:42.204Z,22.34
2023-03-02T15:53:45.453Z,22.60
2023-03-02T15:56:49.132Z,22.56
2023-03-02T15:59:52.426Z,22.77
2023-03-02T16:02:55.691Z,22.75
2023-03-02T16:05:59.308Z,22.85
2023-03-02T16:09:02.628Z,22.80
2023-03-02T16:12:07.939Z,22.80
2023-03-02T16:15:11.505Z,23.09
2023-03-02T16:18:14.749Z,23.03
2023-03-02T16:21:18.390Z,23.25
2023-03-02T16:24:24.591Z,23.16
2023-03-02T16:27:27.787Z,23.29
2023-03-02T16:30:34.297Z,23.45
2023-03-02T16:33:38.079Z,23.85
2023-03-02T16:36:42.892Z,23.97
2023-03-02T16:39:46.189Z,23.81
2023-03-02T16:42:50.130Z,23.67
2023-03-02T16:45:53.656Z,23.70
2023-03-02T16:48:57.731Z,23.88
2023-03-02T16:52:00.916Z,23.83
2023-03-02T16:55:07.129Z,23.64
2023-03-02T16:58:10.366Z,23.79
2023-03-02T17:01:19.392Z,23.87
2023-03-02T17:04:22.874Z,23.84
2023-03-02T17:07:26.267Z,23.62
2023-03-02T17:10:30.938Z,23.87
2023-03-02T17:13:34.393Z,23.94
2023-03-02T17:16:37.598Z,24.12
2023-03-02T17:19:40.854Z,24.34
2023-03-02T17:22:44.046Z,24.51
2023-03-02T17:25:47.410Z,24.59
2023-03-02T17:28:50.555Z,24.42
2023-03-02T17:31:54.147Z,24.54
2023-03-02T17:34:57.377Z,24.65
2023-03-02T17:38:00.885Z,24.64
2023-03-02T17:41:09.244Z,24.64
2023-03-02T17:44:12.507Z,24.49
2023-03-02T17:47:18.047Z,24.54
2023-03-02T17:50:23.287Z,24.58
2023-03-02T17:53:26.673Z,24.30
2023-03-02T17:56:33.026Z,24.34
2023-03-02T17:59:36.360Z,24.28
2023-03-02T18:02:39.637Z,24.30
2023-03-02T18:05:42.974Z,24.26
2023-03-02T18:08:46.402Z,24.25
2023-03-02T18:11:49.604Z,24.21
2023-03-02T18:14:58.050Z,24.30
2023-03-02T18:18:01.409Z,24.27
2023-03-02T18:21:05.411Z,24.23
2023-03-02T18:24:12.358Z,24.24
2023-03-02T18:27:15.685Z,24.18
2023-03-02T18:30:20.370Z,24.27
2023-03-02T18:33:23.644Z,24.38
2023-03-02T18:36:27.146Z,24.39
2023-03-02T18:39:30.424Z,24.34
2023-03-02T18:42:34.341Z,24.37
2023-03-02T18:45:37.562Z,24.38
2023-03-02T18:48:40.746Z,24.50
2023-03-02T18:51:44.213Z,24.35
2023-03-02T18:54:48.109Z,24.35
2023-03-02T18:57:51.796Z,24.53
2023-03-02T19:00:55.373Z,24.45
2023-03-02T19:03:58.699Z,24.49
2023-03-02T19:07:01.938Z,24.36
2023-03-02T19:10:08.049Z,24.60
2023-03-02T19:13:11.317Z,24.78
2023-03-02T19:16:16.695Z,25.02
2023-03-02T19:19:21.078Z,25.05
2023-03-02T19:22:24.303Z,25.04
2023-03-02T19:25:30.478Z,25.18
2023-03-02T19:28:33.803Z,25.13
2023-03-02T19:31:39.357Z,25.19
2023-03-02T19:34:42.702Z,25.46
2023-03-02T19:37:46.237Z,25.48
2023-03-02T19:40:49.504Z,25.83
2023-03-02T19:43:52.748Z,26.17
2023-03-02T19:46:56.006Z,26.17
2023-03-02T19:49:59.196Z,25.91
2023-03-02T19:53:02.490Z,25.97
2023-03-02T19:56:08.704Z,26.05
2023-03-02T19:59:12.245Z,26.10
2023-03-02T20:02:15.713Z,26.17
2023-03-02T20:05:19.276Z,26.06
2023-03-02T20:08:22.615Z,26.21
2023-03-02T20:11:27.005Z,26.20
2023-03-02T20:14:34.078Z,26.21
2023-03-02T20:17:37.491Z,26.15
2023-03-02T20:20:40.795Z,26.23
2023-03-02T20:23:44.266Z,26.36
2023-03-02T20:26:48.173Z,26.28
2023-03-02T20:29:51.439Z,26.26
2023-03-02T20:32:56.688Z,26.30
2023-03-02T20:36:00.502Z,26.39
2023-03-02T20:39:26.333Z,26.31
2023-03-02T20:42:30.195Z,26.25
2023-03-02T20:45:33.747Z,26.52
2023-03-02T20:48:37.574Z,26.59
2023-03-02T20:51:43.859Z,26.57
2023-03-02T20:54:47.068Z,26.70
2023-03-02T20:57:50.286Z,26.94
2023-03-02T21:00:53.864Z,26.80
2023-03-02T21:03:57.464Z,26.52
2023-03-02T21:07:00.763Z,26.56
2023-03-02T21:10:07.427Z,26.64
2023-03-02T21:13:12.001Z,26.73
2023-03-02T21:16:22.864Z,26.85
2023-03-02T21:19:27.881Z,26.85
2023-03-02T21:22:31.039Z,26.86
2023-03-02T21:25:36.108Z,26.80
2023-03-02T21:28:39.407Z,26.77
2023-03-02T21:31:43.284Z,26.88
2023-03-02T21:34:46.573Z,26.69
2023-03-02T21:37:53.232Z,26.79
2023-03-02T21:40:56.591Z,26.87
2023-03-02T21:43:59.881Z,26.74
2023-03-02T21:47:03.178Z,26.69
2023-03-02T21:50:06.917Z,26.62
2023-03-02T21:53:10.321Z,26.68
2023-03-02T21:56:22.163Z,26.70
2023-03-02T21:59:25.389Z,26.81
2023-03-02T22:02:28.599Z,26.79
2023-03-02T22:05:32.101Z,26.83
2023-03-02T22:08:35.509Z,26.79
2023-03-02T22:11:39.486Z,26.76
2023-03-02T22:14:42.783Z,26.77
2023-03-02T22:17:46.120Z,26.94
2023-03-02T22:20:51.456Z,27.04
2023-03-02T22:24:06.530Z,27.06
2023-03-02T22:27:19.952Z,27.11
2023-03-02T22:30:24.395Z,27.00
2023-03-02T22:33:29.235Z,26.90
2023-03-02T22:36:32.705Z,27.01
2023-03-02T22:39:36.048Z,27.31
2023-03-02T22:42:39.508Z,28.40
2023-03-02T22:45:44.270Z,27.86
2023-03-02T22:48:49.146Z,27.48
2023-03-02T22:51:52.576Z,27.09
2023-03-02T22:54:55.856Z,26.71
2023-03-02T22:57:59.125Z,26.70
2023-03-02T23:01:03.231Z,26.59
2023-03-02T23:04:10.763Z,26.44
2023-03-02T23:07:22.497Z,26.21
2023-03-02T23:10:26.605Z,26.28
2023-03-02T23:13:42.391Z,26.25
2023-03-02T23:16:54.623Z,26.16
2023-03-02T23:19:58.113Z,26.19
2023-03-02T23:23:01.690Z,26.01
2023-03-02T23:26:05.016Z,25.95
2023-03-02T23:29:08.464Z,25.78
2023-03-02T23:32:13.946Z,25.87
2023-03-02T23:35:17.504Z,25.84
2023-03-02T23:38:20.939Z,25.77
2023-03-02T23:41:24.232Z,25.53
2023-03-02T23:44:27.538Z,25.42
2023-03-02T23:47:33.799Z,25.51
2023-03-02T23:50:36.989Z,25.38
2023-03-02T23:53:40.422Z,25.38
2023-03-02T23:56:43.896Z,25.17
2023-03-02T23:59:47.115Z,25.18
